CheckWX is a tool to help pilots better visualize weather data.  It is not intended as a substitute for an official pre-flight weather briefing.

06:27:31 UTC

KELM METAR
Elmira / Corning Regional Airport
Elmira/Corning, New York, USA
Current

13 mins ago

KELM 190615Z AUTO 00000KT 3SM BR FEW002 07/07 A3031 RMK AO2 T00670067
Observed
Sep-19 @ 06:15 UTC
Visibility
3 SM
Flight Rules
MVFR
Conditions
Mist
Cloud Levels
  • Few at 200' AGL
Temperature
C / 45°F
Dewpoint
C / 45°F
Humidity
100%
Altimeter
30.31" Hg
Pressure
1026.42 hPa
Previous

35 mins ago

KELM 190553Z AUTO 00000KT 1/2SM R24/P6000FT FG CLR 06/06 A3031 RMK AO2 SLP265 T00610061 10161 20061 53005
Observed
Sep-19 @ 05:53 UTC
Visibility
1/2 SM
Flight Rules
LIFR
Conditions
Fog
Cloud Levels
  • Clear skies
Temperature
C / 43°F
Dewpoint
C / 43°F
Humidity
100%
Altimeter
30.31" Hg
Pressure
1026.42 hPa
Previous

1 hour ago

KELM 190523Z AUTO 00000KT 7SM CLR 07/07 A3031 RMK AO2 T00670067
Observed
Sep-19 @ 05:23 UTC
Visibility
7 SM
Flight Rules
VFR
Cloud Levels
  • Clear skies
Temperature
C / 45°F
Dewpoint
C / 45°F
Humidity
100%
Altimeter
30.31" Hg
Pressure
1026.42 hPa